sensor_id;sensor_type;location;lat;lon;timestamp;pressure;altitude;pressure_sealevel;temperature;humidity
3796;BME280;1913;50.660;7.834;2022-12-04T00:02:12;97071.59;;;-1.09;100.00
3796;BME280;1913;50.660;7.834;2022-12-04T00:04:38;97067.09;;;-1.17;100.00
3796;BME280;1913;50.660;7.834;2022-12-04T00:07:03;97065.44;;;-1.18;100.00
3796;BME280;1913;50.660;7.834;2022-12-04T00:09:29;97071.69;;;-1.21;100.00
3796;BME280;1913;50.660;7.834;2022-12-04T00:11:54;97070.34;;;-1.15;100.00
3796;BME280;1913;50.660;7.834;2022-12-04T00:14:19;97070.44;;;-1.26;100.00
3796;BME280;1913;50.660;7.834;2022-12-04T00:16:45;97067.72;;;-1.34;100.00
3796;BME280;1913;50.660;7.834;2022-12-04T00:19:10;97063.97;;;-1.21;100.00
3796;BME280;1913;50.660;7.834;2022-12-04T00:21:36;97065.28;;;-1.26;100.00
3796;BME280;1913;50.660;7.834;2022-12-04T00:24:01;97063.13;;;-1.31;100.00
3796;BME280;1913;50.660;7.834;2022-12-04T00:26:27;97057.69;;;-1.28;100.00
3796;BME280;1913;50.660;7.834;2022-12-04T00:28:53;97060.78;;;-1.34;100.00
3796;BME280;1913;50.660;7.834;2022-12-04T00:31:22;97056.03;;;-1.38;100.00
3796;BME280;1913;50.660;7.834;2022-12-04T00:33:48;97061.03;;;-1.37;100.00
3796;BME280;1913;50.660;7.834;2022-12-04T00:36:16;97053.00;;;-1.43;100.00
3796;BME280;1913;50.660;7.834;2022-12-04T00:38:42;97057.75;;;-1.49;100.00
3796;BME280;1913;50.660;7.834;2022-12-04T00:41:13;97057.06;;;-1.51;100.00
3796;BME280;1913;50.660;7.834;2022-12-04T00:43:39;97061.53;;;-1.53;100.00
3796;BME280;1913;50.660;7.834;2022-12-04T00:46:05;97071.16;;;-1.55;100.00
3796;BME280;1913;50.660;7.834;2022-12-04T00:48:31;97070.19;;;-1.54;100.00
3796;BME280;1913;50.660;7.834;2022-12-04T00:51:07;97073.34;;;-1.50;100.00
3796;BME280;1913;50.660;7.834;2022-12-04T00:53:33;97069.66;;;-1.57;100.00
3796;BME280;1913;50.660;7.834;2022-12-04T00:56:03;97066.31;;;-1.48;100.00
3796;BME280;1913;50.660;7.834;2022-12-04T00:58:28;97065.75;;;-1.52;100.00
3796;BME280;1913;50.660;7.834;2022-12-04T01:01:04;97067.13;;;-1.48;100.00
3796;BME280;1913;50.660;7.834;2022-12-04T01:03:32;97053.81;;;-1.53;100.00
3796;BME280;1913;50.660;7.834;2022-12-04T01:05:57;97054.09;;;-1.46;100.00
3796;BME280;1913;50.660;7.834;2022-12-04T01:08:23;97048.25;;;-1.48;100.00
3796;BME280;1913;50.660;7.834;2022-12-04T01:10:49;97058.06;;;-1.42;100.00
3796;BME280;1913;50.660;7.834;2022-12-04T01:13:14;97060.34;;;-1.39;100.00
3796;BME280;1913;50.660;7.834;2022-12-04T01:15:40;97058.44;;;-1.47;100.00
3796;BME280;1913;50.660;7.834;2022-12-04T01:18:07;97062.47;;;-1.54;100.00
3796;BME280;1913;50.660;7.834;2022-12-04T01:20:33;97062.78;;;-1.47;100.00
3796;BME280;1913;50.660;7.834;2022-12-04T01:22:58;97057.75;;;-1.49;100.00
3796;BME280;1913;50.660;7.834;2022-12-04T01:25:24;97064.69;;;-1.49;100.00
3796;BME280;1913;50.660;7.834;2022-12-04T01:27:49;97063.84;;;-1.50;100.00
3796;BME280;1913;50.660;7.834;2022-12-04T01:30:14;97060.44;;;-1.50;100.00
3796;BME280;1913;50.660;7.834;2022-12-04T01:32:40;97057.47;;;-1.55;100.00
3796;BME280;1913;50.660;7.834;2022-12-04T01:35:06;97052.59;;;-1.49;100.00
3796;BME280;1913;50.660;7.834;2022-12-04T01:37:31;97043.22;;;-1.50;100.00
3796;BME280;1913;50.660;7.834;2022-12-04T01:39:57;97043.78;;;-1.46;100.00
3796;BME280;1913;50.660;7.834;2022-12-04T01:42:23;97033.63;;;-1.48;100.00
3796;BME280;1913;50.660;7.834;2022-12-04T01:47:57;97029.72;;;-1.42;100.00
3796;BME280;1913;50.660;7.834;2022-12-04T01:50:25;97037.44;;;-1.42;100.00
3796;BME280;1913;50.660;7.834;2022-12-04T01:52:52;97044.31;;;-1.52;100.00
3796;BME280;1913;50.660;7.834;2022-12-04T01:55:17;97038.72;;;-1.57;100.00
3796;BME280;1913;50.660;7.834;2022-12-04T01:57:43;97051.59;;;-1.67;100.00
3796;BME280;1913;50.660;7.834;2022-12-04T02:00:12;97040.72;;;-1.71;100.00
3796;BME280;1913;50.660;7.834;2022-12-04T02:02:40;97036.13;;;-1.67;100.00
3796;BME280;1913;50.660;7.834;2022-12-04T02:05:09;97032.81;;;-1.79;100.00
3796;BME280;1913;50.660;7.834;2022-12-04T02:07:36;97029.97;;;-1.76;100.00
3796;BME280;1913;50.660;7.834;2022-12-04T02:10:04;97028.22;;;-1.75;100.00
3796;BME280;1913;50.660;7.834;2022-12-04T02:15:17;97024.72;;;-1.74;100.00
3796;BME280;1913;50.660;7.834;2022-12-04T02:20:39;97025.38;;;-1.72;100.00
3796;BME280;1913;50.660;7.834;2022-12-04T02:31:20;97036.16;;;-1.57;100.00
3796;BME280;1913;50.660;7.834;2022-12-04T02:33:59;97031.59;;;-1.75;100.00
3796;BME280;1913;50.660;7.834;2022-12-04T02:36:30;97027.09;;;-1.82;100.00
3796;BME280;1913;50.660;7.834;2022-12-04T02:39:08;97033.91;;;-1.81;100.00
3796;BME280;1913;50.660;7.834;2022-12-04T02:41:40;97033.13;;;-1.72;100.00
3796;BME280;1913;50.660;7.834;2022-12-04T02:45:00;97037.16;;;-1.79;100.00
3796;BME280;1913;50.660;7.834;2022-12-04T02:47:28;97043.03;;;-1.67;100.00
3796;BME280;1913;50.660;7.834;2022-12-04T02:49:58;97039.63;;;-1.78;100.00
3796;BME280;1913;50.660;7.834;2022-12-04T02:52:34;97039.06;;;-1.72;100.00
3796;BME280;1913;50.660;7.834;2022-12-04T02:55:07;97032.59;;;-1.66;100.00
3796;BME280;1913;50.660;7.834;2022-12-04T02:57:39;97042.94;;;-1.56;100.00
3796;BME280;1913;50.660;7.834;2022-12-04T03:00:05;97038.88;;;-1.59;100.00
3796;BME280;1913;50.660;7.834;2022-12-04T03:02:38;97038.16;;;-1.71;100.00
3796;BME280;1913;50.660;7.834;2022-12-04T03:05:12;97034.72;;;-1.81;100.00
3796;BME280;1913;50.660;7.834;2022-12-04T03:08:00;97044.63;;;-1.76;100.00
3796;BME280;1913;50.660;7.834;2022-12-04T03:10:31;97052.22;;;-1.75;100.00
3796;BME280;1913;50.660;7.834;2022-12-04T03:13:12;97054.78;;;-1.75;100.00
3796;BME280;1913;50.660;7.834;2022-12-04T03:15:47;97052.91;;;-1.73;100.00
3796;BME280;1913;50.660;7.834;2022-12-04T03:18:30;97059.00;;;-1.74;100.00
3796;BME280;1913;50.660;7.834;2022-12-04T03:21:02;97052.09;;;-1.73;100.00
3796;BME280;1913;50.660;7.834;2022-12-04T03:23:38;97053.63;;;-1.61;100.00
3796;BME280;1913;50.660;7.834;2022-12-04T03:26:13;97052.50;;;-1.68;100.00
3796;BME280;1913;50.660;7.834;2022-12-04T03:34:02;97051.41;;;-1.75;100.00
3796;BME280;1913;50.660;7.834;2022-12-04T03:36:47;97048.66;;;-1.83;100.00
3796;BME280;1913;50.660;7.834;2022-12-04T03:39:20;97049.72;;;-1.86;100.00
3796;BME280;1913;50.660;7.834;2022-12-04T03:42:01;97050.16;;;-1.81;100.00
3796;BME280;1913;50.660;7.834;2022-12-04T03:45:01;97048.59;;;-1.93;100.00
3796;BME280;1913;50.660;7.834;2022-12-04T03:47:33;97042.53;;;-1.92;100.00
3796;BME280;1913;50.660;7.834;2022-12-04T03:50:27;97046.72;;;-1.91;100.00
3796;BME280;1913;50.660;7.834;2022-12-04T03:53:11;97038.59;;;-1.86;100.00
3796;BME280;1913;50.660;7.834;2022-12-04T03:55:47;97041.75;;;-1.83;100.00
3796;BME280;1913;50.660;7.834;2022-12-04T03:58:20;97040.03;;;-1.73;100.00
3796;BME280;1913;50.660;7.834;2022-12-04T04:00:50;97035.28;;;-1.77;100.00
3796;BME280;1913;50.660;7.834;2022-12-04T04:03:24;97036.09;;;-1.77;100.00
3796;BME280;1913;50.660;7.834;2022-12-04T04:05:56;97032.09;;;-1.90;100.00
3796;BME280;1913;50.660;7.834;2022-12-04T04:08:26;97023.41;;;-1.89;100.00
3796;BME280;1913;50.660;7.834;2022-12-04T04:11:16;97027.06;;;-1.92;100.00
3796;BME280;1913;50.660;7.834;2022-12-04T04:14:04;97024.34;;;-1.90;100.00
3796;BME280;1913;50.660;7.834;2022-12-04T04:16:58;97021.09;;;-1.93;100.00
3796;BME280;1913;50.660;7.834;2022-12-04T04:19:43;97020.41;;;-1.95;100.00
3796;BME280;1913;50.660;7.834;2022-12-04T04:22:30;97028.44;;;-1.88;100.00
3796;BME280;1913;50.660;7.834;2022-12-04T04:25:37;97030.72;;;-1.95;100.00
3796;BME280;1913;50.660;7.834;2022-12-04T04:28:04;97028.44;;;-1.88;100.00
3796;BME280;1913;50.660;7.834;2022-12-04T04:30:31;97033.34;;;-1.85;100.00
3796;BME280;1913;50.660;7.834;2022-12-04T04:36:20;97025.16;;;-1.90;100.00
3796;BME280;1913;50.660;7.834;2022-12-04T04:41:49;97028.19;;;-1.85;100.00
3796;BME280;1913;50.660;7.834;2022-12-04T04:44:25;97020.63;;;-1.77;100.00
3796;BME280;1913;50.660;7.834;2022-12-04T04:46:59;97031.19;;;-1.80;100.00
3796;BME280;1913;50.660;7.834;2022-12-04T04:49:29;97026.78;;;-1.89;100.00
3796;BME280;1913;50.660;7.834;2022-12-04T04:51:56;97039.72;;;-1.79;100.00
3796;BME280;1913;50.660;7.834;2022-12-04T04:54:24;97029.94;;;-1.85;100.00
3796;BME280;1913;50.660;7.834;2022-12-04T04:56:50;97026.78;;;-1.89;100.00
3796;BME280;1913;50.660;7.834;2022-12-04T04:59:15;97029.31;;;-1.78;100.00
3796;BME280;1913;50.660;7.834;2022-12-04T05:01:42;97026.28;;;-1.83;100.00
3796;BME280;1913;50.660;7.834;2022-12-04T05:04:09;97031.38;;;-1.93;100.00
3796;BME280;1913;50.660;7.834;2022-12-04T05:06:34;97028.25;;;-1.96;100.00
3796;BME280;1913;50.660;7.834;2022-12-04T05:09:00;97017.22;;;-2.08;100.00
3796;BME280;1913;50.660;7.834;2022-12-04T05:11:25;97016.66;;;-2.11;100.00
3796;BME280;1913;50.660;7.834;2022-12-04T05:13:51;97019.09;;;-2.10;100.00
3796;BME280;1913;50.660;7.834;2022-12-04T05:16:17;97017.47;;;-2.11;100.00
3796;BME280;1913;50.660;7.834;2022-12-04T05:18:43;97017.16;;;-2.18;100.00
3796;BME280;1913;50.660;7.834;2022-12-04T05:21:29;97016.53;;;-2.10;100.00
3796;BME280;1913;50.660;7.834;2022-12-04T05:23:54;97019.69;;;-2.06;100.00
3796;BME280;1913;50.660;7.834;2022-12-04T05:26:20;97012.16;;;-2.19;100.00
3796;BME280;1913;50.660;7.834;2022-12-04T05:28:45;97027.72;;;-2.21;100.00
3796;BME280;1913;50.660;7.834;2022-12-04T05:31:10;97020.03;;;-2.11;100.00
3796;BME280;1913;50.660;7.834;2022-12-04T05:33:36;97026.16;;;-2.12;100.00
3796;BME280;1913;50.660;7.834;2022-12-04T05:36:03;97027.03;;;-2.02;100.00
3796;BME280;1913;50.660;7.834;2022-12-04T05:38:30;97030.97;;;-2.19;100.00
3796;BME280;1913;50.660;7.834;2022-12-04T05:40:59;97028.78;;;-2.23;100.00
3796;BME280;1913;50.660;7.834;2022-12-04T05:43:25;97028.59;;;-2.31;100.00
3796;BME280;1913;50.660;7.834;2022-12-04T05:45:51;97026.34;;;-2.25;100.00
3796;BME280;1913;50.660;7.834;2022-12-04T05:48:16;97024.53;;;-2.13;100.00
3796;BME280;1913;50.660;7.834;2022-12-04T05:50:42;97022.13;;;-2.05;100.00
3796;BME280;1913;50.660;7.834;2022-12-04T05:53:07;97028.84;;;-2.13;100.00
3796;BME280;1913;50.660;7.834;2022-12-04T05:55:33;97027.97;;;-2.03;100.00
3796;BME280;1913;50.660;7.834;2022-12-04T05:57:58;97027.84;;;-2.01;100.00
3796;BME280;1913;50.660;7.834;2022-12-04T06:00:24;97020.41;;;-1.95;100.00
3796;BME280;1913;50.660;7.834;2022-12-04T06:02:49;97024.09;;;-1.87;100.00
3796;BME280;1913;50.660;7.834;2022-12-04T06:05:15;97026.38;;;-1.94;100.00
3796;BME280;1913;50.660;7.834;2022-12-04T06:07:40;97029.72;;;-2.03;100.00
3796;BME280;1913;50.660;7.834;2022-12-04T06:10:06;97025.66;;;-2.06;100.00
3796;BME280;1913;50.660;7.834;2022-12-04T06:12:31;97030.91;;;-2.07;100.00
3796;BME280;1913;50.660;7.834;2022-12-04T06:14:57;97016.66;;;-2.11;100.00
3796;BME280;1913;50.660;7.834;2022-12-04T06:17:22;97016.97;;;-2.05;100.00
3796;BME280;1913;50.660;7.834;2022-12-04T06:19:47;97013.63;;;-1.96;100.00
3796;BME280;1913;50.660;7.834;2022-12-04T06:22:13;97013.09;;;-1.99;100.00
3796;BME280;1913;50.660;7.834;2022-12-04T06:24:38;97016.22;;;-1.96;100.00
3796;BME280;1913;50.660;7.834;2022-12-04T06:27:04;97022.84;;;-1.93;100.00
3796;BME280;1913;50.660;7.834;2022-12-04T06:29:31;97017.75;;;-1.83;100.00
3796;BME280;1913;50.660;7.834;2022-12-04T06:31:56;97019.47;;;-1.94;100.00
3796;BME280;1913;50.660;7.834;2022-12-04T06:34:22;97018.25;;;-1.89;100.00
3796;BME280;1913;50.660;7.834;2022-12-04T06:36:47;97018.34;;;-2.01;100.00
3796;BME280;1913;50.660;7.834;2022-12-04T06:39:13;97022.72;;;-1.91;100.00
3796;BME280;1913;50.660;7.834;2022-12-04T06:41:38;97019.41;;;-2.03;100.00
3796;BME280;1913;50.660;7.834;2022-12-04T06:44:04;97025.75;;;-2.07;100.00
3796;BME280;1913;50.660;7.834;2022-12-04T06:46:31;97033.38;;;-2.06;100.00
3796;BME280;1913;50.660;7.834;2022-12-04T06:49:01;97035.19;;;-2.18;100.00
3796;BME280;1913;50.660;7.834;2022-12-04T06:51:30;97035.41;;;-2.00;100.00
3796;BME280;1913;50.660;7.834;2022-12-04T06:53:55;97041.53;;;-2.01;100.00
3796;BME280;1913;50.660;7.834;2022-12-04T06:56:23;97050.69;;;-2.08;100.00
3796;BME280;1913;50.660;7.834;2022-12-04T06:58:51;97047.56;;;-2.11;100.00
3796;BME280;1913;50.660;7.834;2022-12-04T07:01:19;97050.44;;;-2.05;100.00
3796;BME280;1913;50.660;7.834;2022-12-04T07:03:46;97049.69;;;-1.96;100.00
3796;BME280;1913;50.660;7.834;2022-12-04T07:06:24;97050.19;;;-2.02;100.00
3796;BME280;1913;50.660;7.834;2022-12-04T07:08:53;97050.75;;;-1.98;100.00
3796;BME280;1913;50.660;7.834;2022-12-04T07:11:20;97045.78;;;-1.90;100.00
3796;BME280;1913;50.660;7.834;2022-12-04T07:13:46;97044.97;;;-1.90;100.00
3796;BME280;1913;50.660;7.834;2022-12-04T07:16:14;97054.16;;;-1.98;100.00
3796;BME280;1913;50.660;7.834;2022-12-04T07:18:40;97049.63;;;-2.05;100.00
3796;BME280;1913;50.660;7.834;2022-12-04T07:21:08;97048.03;;;-1.97;100.00
3796;BME280;1913;50.660;7.834;2022-12-04T07:23:34;97047.78;;;-1.94;100.00
3796;BME280;1913;50.660;7.834;2022-12-04T07:26:08;97062.28;;;-1.93;100.00
3796;BME280;1913;50.660;7.834;2022-12-04T07:28:35;97060.09;;;-1.97;100.00
3796;BME280;1913;50.660;7.834;2022-12-04T07:31:21;97054.97;;;-1.97;100.00
3796;BME280;1913;50.660;7.834;2022-12-04T07:33:47;97055.50;;;-1.94;100.00
3796;BME280;1913;50.660;7.834;2022-12-04T07:36:16;97054.78;;;-1.75;100.00
3796;BME280;1913;50.660;7.834;2022-12-04T07:38:42;97051.47;;;-1.86;100.00
3796;BME280;1913;50.660;7.834;2022-12-04T07:41:09;97055.88;;;-1.77;100.00
3796;BME280;1913;50.660;7.834;2022-12-04T07:43:35;97053.81;;;-1.83;100.00
3796;BME280;1913;50.660;7.834;2022-12-04T07:46:07;97059.22;;;-1.86;100.00
3796;BME280;1913;50.660;7.834;2022-12-04T07:48:33;97053.47;;;-1.69;100.00
3796;BME280;1913;50.660;7.834;2022-12-04T07:51:19;97054.41;;;-1.70;100.00
3796;BME280;1913;50.660;7.834;2022-12-04T07:53:46;97053.31;;;-1.67;100.00
3796;BME280;1913;50.660;7.834;2022-12-04T07:56:12;97054.41;;;-1.70;100.00
3796;BME280;1913;50.660;7.834;2022-12-04T07:58:39;97051.03;;;-1.71;100.00
3796;BME280;1913;50.660;7.834;2022-12-04T08:03:31;97035.56;;;-1.71;100.00
3796;BME280;1913;50.660;7.834;2022-12-04T08:06:01;97035.81;;;-1.74;100.00
3796;BME280;1913;50.660;7.834;2022-12-04T08:08:26;97035.53;;;-1.80;100.00
3796;BME280;1913;50.660;7.834;2022-12-04T08:10:52;97028.25;;;-1.65;100.00
3796;BME280;1913;50.660;7.834;2022-12-04T08:13:17;97031.59;;;-1.75;100.00
3796;BME280;1913;50.660;7.834;2022-12-04T08:15:42;97022.16;;;-1.64;100.00
3796;BME280;1913;50.660;7.834;2022-12-04T08:18:08;97021.38;;;-1.55;100.00
3796;BME280;1913;50.660;7.834;2022-12-04T08:20:34;97023.44;;;-1.49;100.00
3796;BME280;1913;50.660;7.834;2022-12-04T08:22:59;97036.88;;;-1.46;100.00
3796;BME280;1913;50.660;7.834;2022-12-04T08:25:25;97026.03;;;-1.49;100.00
3796;BME280;1913;50.660;7.834;2022-12-04T08:27:51;97036.84;;;-1.55;100.00
3796;BME280;1913;50.660;7.834;2022-12-04T08:30:17;97041.56;;;-1.60;100.00
3796;BME280;1913;50.660;7.834;2022-12-04T08:32:42;97041.31;;;-1.57;100.00
3796;BME280;1913;50.660;7.834;2022-12-04T08:35:08;97045.38;;;-1.55;100.00
3796;BME280;1913;50.660;7.834;2022-12-04T08:37:33;97046.34;;;-1.46;100.00
3796;BME280;1913;50.660;7.834;2022-12-04T08:39:59;97053.41;;;-1.48;100.00
3796;BME280;1913;50.660;7.834;2022-12-04T08:42:24;97041.34;;;-1.48;100.00
3796;BME280;1913;50.660;7.834;2022-12-04T08:44:50;97048.97;;;-1.36;100.00
3796;BME280;1913;50.660;7.834;2022-12-04T08:47:15;97055.22;;;-1.29;100.00
3796;BME280;1913;50.660;7.834;2022-12-04T08:49:40;97050.47;;;-1.34;100.00
3796;BME280;1913;50.660;7.834;2022-12-04T08:52:06;97040.19;;;-1.24;100.00
3796;BME280;1913;50.660;7.834;2022-12-04T08:54:31;97040.88;;;-1.22;100.00
3796;BME280;1913;50.660;7.834;2022-12-04T08:56:57;97044.50;;;-1.25;100.00
3796;BME280;1913;50.660;7.834;2022-12-04T08:59:22;97042.22;;;-1.18;100.00
3796;BME280;1913;50.660;7.834;2022-12-04T09:01:49;97046.19;;;-1.04;100.00
3796;BME280;1913;50.660;7.834;2022-12-04T09:04:16;97055.00;;;-1.07;100.00
3796;BME280;1913;50.660;7.834;2022-12-04T09:06:42;97052.03;;;-1.12;100.00
3796;BME280;1913;50.660;7.834;2022-12-04T09:09:07;97044.16;;;-1.01;100.00
3796;BME280;1913;50.660;7.834;2022-12-04T09:11:32;97048.81;;;-0.85;100.00
3796;BME280;1913;50.660;7.834;2022-12-04T09:14:00;97049.50;;;-0.73;100.00
3796;BME280;1913;50.660;7.834;2022-12-04T09:16:26;97055.44;;;-0.82;100.00
3796;BME280;1913;50.660;7.834;2022-12-04T09:18:54;97058.19;;;-0.84;100.00
3796;BME280;1913;50.660;7.834;2022-12-04T09:21:21;97064.56;;;-0.78;100.00
3796;BME280;1913;50.660;7.834;2022-12-04T09:23:47;97068.63;;;-0.76;100.00
3796;BME280;1913;50.660;7.834;2022-12-04T09:26:27;97060.22;;;-0.78;100.00
3796;BME280;1913;50.660;7.834;2022-12-04T09:28:54;97062.41;;;-0.73;100.00
3796;BME280;1913;50.660;7.834;2022-12-04T09:31:21;97054.66;;;-0.73;100.00
3796;BME280;1913;50.660;7.834;2022-12-04T09:33:47;97055.06;;;-0.68;100.00
3796;BME280;1913;50.660;7.834;2022-12-04T09:36:13;97051.94;;;-0.91;100.00
3796;BME280;1913;50.660;7.834;2022-12-04T09:38:47;97062.00;;;-0.78;100.00
3796;BME280;1913;50.660;7.834;2022-12-04T09:46:37;97058.84;;;-0.72;100.00
3796;BME280;1913;50.660;7.834;2022-12-04T09:49:15;97045.84;;;-0.70;100.00
3796;BME280;1913;50.660;7.834;2022-12-04T09:51:42;97041.63;;;-0.62;100.00
3796;BME280;1913;50.660;7.834;2022-12-04T09:54:18;97036.19;;;-0.59;100.00
3796;BME280;1913;50.660;7.834;2022-12-04T09:56:52;97044.47;;;-0.45;100.00
3796;BME280;1913;50.660;7.834;2022-12-04T09:59:24;97039.69;;;-0.40;100.00
3796;BME280;1913;50.660;7.834;2022-12-04T10:01:59;97035.78;;;-0.54;100.00
3796;BME280;1913;50.660;7.834;2022-12-04T10:04:27;97018.25;;;-0.51;100.00
3796;BME280;1913;50.660;7.834;2022-12-04T10:07:00;97027.22;;;-0.45;100.00
3796;BME280;1913;50.660;7.834;2022-12-04T10:12:31;97024.34;;;-0.61;100.00
3796;BME280;1913;50.660;7.834;2022-12-04T10:15:28;97016.34;;;-0.58;100.00
3796;BME280;1913;50.660;7.834;2022-12-04T10:18:21;97014.84;;;-0.61;100.00
3796;BME280;1913;50.660;7.834;2022-12-04T10:23:49;97005.22;;;-0.59;100.00
3796;BME280;1913;50.660;7.834;2022-12-04T10:26:21;97012.00;;;-0.38;100.00
3796;BME280;1913;50.660;7.834;2022-12-04T10:29:06;97012.38;;;-0.33;100.00
3796;BME280;1913;50.660;7.834;2022-12-04T10:31:34;97013.88;;;-0.40;100.00
3796;BME280;1913;50.660;7.834;2022-12-04T10:34:15;97007.75;;;-0.39;100.00
3796;BME280;1913;50.660;7.834;2022-12-04T10:36:46;97008.44;;;-0.28;100.00
3796;BME280;1913;50.660;7.834;2022-12-04T10:39:56;97007.09;;;-0.41;100.00
3796;BME280;1913;50.660;7.834;2022-12-04T10:42:34;96998.81;;;-0.35;100.00
3796;BME280;1913;50.660;7.834;2022-12-04T10:45:06;96996.34;;;-0.46;100.00
3796;BME280;1913;50.660;7.834;2022-12-04T10:47:32;96996.78;;;-0.41;100.00
3796;BME280;1913;50.660;7.834;2022-12-04T10:50:01;96997.19;;;-0.46;100.00
3796;BME280;1913;50.660;7.834;2022-12-04T10:52:27;96994.84;;;-0.39;100.00
3796;BME280;1913;50.660;7.834;2022-12-04T10:55:00;97000.31;;;-0.42;100.00
3796;BME280;1913;50.660;7.834;2022-12-04T11:00:01;96996.63;;;-0.40;100.00
3796;BME280;1913;50.660;7.834;2022-12-04T11:02:29;97001.78;;;-0.40;100.00
3796;BME280;1913;50.660;7.834;2022-12-04T11:07:46;96995.16;;;-0.52;100.00
3796;BME280;1913;50.660;7.834;2022-12-04T11:13:15;96984.41;;;-0.47;100.00
3796;BME280;1913;50.660;7.834;2022-12-04T11:15:45;96974.34;;;-0.51;100.00
3796;BME280;1913;50.660;7.834;2022-12-04T11:18:20;96966.63;;;-0.51;100.00
3796;BME280;1913;50.660;7.834;2022-12-04T11:21:00;96972.59;;;-0.50;100.00
3796;BME280;1913;50.660;7.834;2022-12-04T11:23:33;96970.59;;;-0.56;100.00
3796;BME280;1913;50.660;7.834;2022-12-04T11:25:59;96974.50;;;-0.62;100.00
3796;BME280;1913;50.660;7.834;2022-12-04T11:28:28;96975.03;;;-0.49;100.00
3796;BME280;1913;50.660;7.834;2022-12-04T11:30:59;96969.72;;;-0.47;100.00
3796;BME280;1913;50.660;7.834;2022-12-04T11:33:37;96973.00;;;-0.55;100.00
3796;BME280;1913;50.660;7.834;2022-12-04T11:36:15;96971.13;;;-0.53;100.00
3796;BME280;1913;50.660;7.834;2022-12-04T11:38:42;96966.06;;;-0.44;100.00
3796;BME280;1913;50.660;7.834;2022-12-04T11:41:25;96957.50;;;-0.45;100.00
3796;BME280;1913;50.660;7.834;2022-12-04T11:43:51;96963.06;;;-0.40;100.00
3796;BME280;1913;50.660;7.834;2022-12-04T11:46:25;96951.53;;;-0.45;100.00
3796;BME280;1913;50.660;7.834;2022-12-04T11:48:51;96949.88;;;-0.46;100.00
3796;BME280;1913;50.660;7.834;2022-12-04T11:54:23;96944.44;;;-0.34;100.00
3796;BME280;1913;50.660;7.834;2022-12-04T12:02:29;96946.06;;;-0.33;100.00
3796;BME280;1913;50.660;7.834;2022-12-04T12:10:49;96929.31;;;-0.29;100.00
3796;BME280;1913;50.660;7.834;2022-12-04T12:13:41;96927.13;;;-0.14;100.00
3796;BME280;1913;50.660;7.834;2022-12-04T12:22:12;96930.53;;;-0.13;100.00
3796;BME280;1913;50.660;7.834;2022-12-04T12:25:16;96936.25;;;-0.19;100.00
3796;BME280;1913;50.660;7.834;2022-12-04T12:33:53;96941.47;;;-0.02;100.00
3796;BME280;1913;50.660;7.834;2022-12-04T12:36:19;96942.44;;;-0.03;100.00
3796;BME280;1913;50.660;7.834;2022-12-04T12:38:50;96948.09;;;0.11;100.00
3796;BME280;1913;50.660;7.834;2022-12-04T12:41:22;96951.88;;;0.16;100.00
3796;BME280;1913;50.660;7.834;2022-12-04T12:44:00;96946.22;;;0.31;100.00
3796;BME280;1913;50.660;7.834;2022-12-04T12:46:40;96941.63;;;0.24;100.00
3796;BME280;1913;50.660;7.834;2022-12-04T12:49:20;96943.06;;;0.37;100.00
3796;BME280;1913;50.660;7.834;2022-12-04T12:51:59;96944.13;;;0.16;100.00
3796;BME280;1913;50.660;7.834;2022-12-04T12:54:50;96927.97;;;0.14;100.00
3796;BME280;1913;50.660;7.834;2022-12-04T12:59:52;96934.88;;;0.14;100.00
3796;BME280;1913;50.660;7.834;2022-12-04T13:02:26;96929.00;;;-0.06;100.00
3796;BME280;1913;50.660;7.834;2022-12-04T13:04:56;96930.78;;;-0.07;100.00
3796;BME280;1913;50.660;7.834;2022-12-04T13:07:47;96944.16;;;0.07;100.00
3796;BME280;1913;50.660;7.834;2022-12-04T13:10:36;96944.47;;;0.04;100.00
3796;BME280;1913;50.660;7.834;2022-12-04T13:13:32;96952.50;;;0.01;100.00
3796;BME280;1913;50.660;7.834;2022-12-04T13:16:05;96954.03;;;-0.07;100.00
3796;BME280;1913;50.660;7.834;2022-12-04T13:18:47;96960.91;;;0.03;100.00
3796;BME280;1913;50.660;7.834;2022-12-04T13:27:13;96933.16;;;0.05;100.00
3796;BME280;1913;50.660;7.834;2022-12-04T13:30:03;96931.41;;;0.05;100.00
3796;BME280;1913;50.660;7.834;2022-12-04T13:45:53;96928.09;;;0.13;100.00
3796;BME280;1913;50.660;7.834;2022-12-04T13:51:00;96927.53;;;0.19;100.00
3796;BME280;1913;50.660;7.834;2022-12-04T13:53:31;96931.16;;;0.26;100.00
3796;BME280;1913;50.660;7.834;2022-12-04T13:55:58;96926.97;;;0.25;100.00
3796;BME280;1913;50.660;7.834;2022-12-04T13:58:32;96917.97;;;0.29;100.00
3796;BME280;1913;50.660;7.834;2022-12-04T14:01:05;96916.47;;;0.27;100.00
3796;BME280;1913;50.660;7.834;2022-12-04T14:03:49;96923.22;;;0.37;100.00
3796;BME280;1913;50.660;7.834;2022-12-04T14:06:42;96920.09;;;0.34;100.00
3796;BME280;1913;50.660;7.834;2022-12-04T14:09:24;96920.47;;;0.39;100.00
3796;BME280;1913;50.660;7.834;2022-12-04T14:11:57;96913.84;;;0.54;100.00
3796;BME280;1913;50.660;7.834;2022-12-04T14:14:30;96906.09;;;0.54;100.00
3796;BME280;1913;50.660;7.834;2022-12-04T14:16:59;96907.25;;;0.42;100.00
3796;BME280;1913;50.660;7.834;2022-12-04T14:19:39;96908.22;;;0.41;100.00
3796;BME280;1913;50.660;7.834;2022-12-04T14:22:25;96909.94;;;0.50;100.00
3796;BME280;1913;50.660;7.834;2022-12-04T14:24:50;96899.66;;;0.58;100.00
3796;BME280;1913;50.660;7.834;2022-12-04T14:27:30;96909.41;;;0.46;100.00
3796;BME280;1913;50.660;7.834;2022-12-04T14:29:58;96906.53;;;0.50;100.00
3796;BME280;1913;50.660;7.834;2022-12-04T14:32:27;96905.94;;;0.56;100.00
3796;BME280;1913;50.660;7.834;2022-12-04T14:34:55;96899.16;;;0.55;100.00
3796;BME280;1913;50.660;7.834;2022-12-04T14:37:26;96893.91;;;0.46;100.00
3796;BME280;1913;50.660;7.834;2022-12-04T14:39:54;96888.53;;;0.58;100.00
3796;BME280;1913;50.660;7.834;2022-12-04T14:42:26;96892.28;;;0.63;100.00
3796;BME280;1913;50.660;7.834;2022-12-04T14:44:57;96893.69;;;0.76;100.00
3796;BME280;1913;50.660;7.834;2022-12-04T14:50:07;96879.34;;;0.81;100.00
3796;BME280;1913;50.660;7.834;2022-12-04T14:52:52;96889.78;;;0.89;100.00
3796;BME280;1913;50.660;7.834;2022-12-04T14:55:40;96886.34;;;0.89;100.00
3796;BME280;1913;50.660;7.834;2022-12-04T14:58:17;96894.28;;;0.87;100.00
3796;BME280;1913;50.660;7.834;2022-12-04T15:00:58;96895.66;;;0.82;100.00
3796;BME280;1913;50.660;7.834;2022-12-04T15:03:25;96891.75;;;0.78;100.00
3796;BME280;1913;50.660;7.834;2022-12-04T15:06:00;96889.56;;;0.83;100.00
3796;BME280;1913;50.660;7.834;2022-12-04T15:08:26;96892.88;;;0.75;100.00
3796;BME280;1913;50.660;7.834;2022-12-04T15:10:51;96889.41;;;0.84;100.00
3796;BME280;1913;50.660;7.834;2022-12-04T15:13:37;96890.50;;;0.82;100.00
3796;BME280;1913;50.660;7.834;2022-12-04T15:16:09;96888.13;;;0.88;100.00
3796;BME280;1913;50.660;7.834;2022-12-04T15:18:39;96884.72;;;0.88;100.00